createdAt,value
2018-09-19T00:01:20.022Z,12.57
2018-09-19T00:03:48.340Z,12.77
2018-09-19T00:06:16.668Z,11.73
2018-09-19T00:08:45.000Z,12.83
2018-09-19T00:11:13.301Z,10.80
2018-09-19T00:13:41.657Z,11.23
2018-09-19T00:16:09.968Z,11.17
2018-09-19T00:18:38.291Z,18.60
2018-09-19T00:21:06.595Z,11.90
2018-09-19T00:23:35.042Z,11.97
2018-09-19T00:26:03.362Z,17.93
2018-09-19T00:28:31.660Z,13.93
2018-09-19T00:31:00.000Z,16.13
2018-09-19T00:33:28.305Z,15.30
2018-09-19T00:35:56.619Z,11.17
2018-09-19T00:38:24.928Z,11.40
2018-09-19T00:40:53.259Z,11.07
2018-09-19T00:43:21.553Z,12.07
2018-09-19T00:45:49.912Z,12.00
2018-09-19T00:48:18.203Z,12.43
2018-09-19T00:50:46.516Z,16.63
2018-09-19T00:53:14.812Z,12.60
2018-09-19T00:55:43.135Z,13.23
2018-09-19T00:58:11.423Z,11.70
2018-09-19T01:00:39.741Z,11.80
2018-09-19T01:03:08.061Z,13.80
2018-09-19T01:05:36.383Z,10.63
2018-09-19T01:08:04.688Z,10.67
2018-09-19T01:10:33.044Z,13.30
2018-09-19T01:13:01.342Z,14.77
2018-09-19T01:15:29.664Z,21.23
2018-09-19T01:17:58.097Z,13.20
2018-09-19T01:20:26.415Z,11.67
2018-09-19T01:22:54.720Z,17.87
2018-09-19T01:25:23.038Z,17.30
2018-09-19T01:27:51.331Z,11.70
2018-09-19T01:30:19.645Z,16.37
2018-09-19T01:32:47.947Z,13.07
2018-09-19T01:35:16.259Z,11.13
2018-09-19T01:37:44.579Z,10.23
2018-09-19T01:40:12.897Z,11.87
2018-09-19T01:42:41.201Z,13.67
2018-09-19T01:45:09.516Z,12.37
2018-09-19T01:47:37.892Z,12.40
2018-09-19T01:50:06.181Z,9.63
2018-09-19T01:52:34.480Z,10.30
2018-09-19T01:55:02.799Z,14.40
2018-09-19T01:57:31.089Z,9.97
2018-09-19T01:59:59.452Z,11.83
2018-09-19T02:02:27.743Z,11.23
2018-09-19T02:04:56.064Z,11.50
2018-09-19T02:07:24.351Z,13.37
2018-09-19T02:09:52.671Z,18.63
2018-09-19T02:12:20.969Z,14.93
2018-09-19T02:14:49.291Z,13.83
2018-09-19T02:17:17.596Z,15.57
2018-09-19T02:19:45.917Z,9.97
2018-09-19T02:22:14.208Z,17.37
2018-09-19T02:24:42.574Z,16.50
2018-09-19T02:27:10.867Z,12.83
2018-09-19T02:29:39.183Z,11.93
2018-09-19T02:32:07.495Z,13.60
2018-09-19T02:34:35.791Z,10.43
2018-09-19T02:37:04.151Z,16.87
2018-09-19T02:39:32.451Z,14.70
2018-09-19T02:42:00.784Z,15.03
2018-09-19T02:44:29.083Z,11.27
2018-09-19T02:46:57.400Z,13.37
2018-09-19T02:49:25.699Z,16.53
2018-09-19T02:51:57.577Z,16.40
2018-09-19T02:54:27.076Z,18.30
2018-09-19T02:56:55.391Z,15.60
2018-09-19T02:59:23.684Z,15.83
2018-09-19T03:01:52.006Z,17.87
2018-09-19T03:04:20.304Z,12.43
2018-09-19T03:06:48.630Z,15.97
2018-09-19T03:09:16.935Z,22.73
2018-09-19T03:11:45.245Z,15.57
2018-09-19T03:14:13.548Z,19.50
2018-09-19T03:16:41.879Z,18.60
2018-09-19T03:19:10.183Z,15.63
2018-09-19T03:21:38.504Z,13.77
2018-09-19T03:24:07.011Z,20.47
2018-09-19T03:26:35.334Z,14.70
2018-09-19T03:29:03.628Z,21.23
2018-09-19T03:31:31.948Z,15.83
2018-09-19T03:34:00.274Z,17.60
2018-09-19T03:36:28.605Z,17.00
2018-09-19T03:38:56.934Z,16.40
2018-09-19T03:41:25.260Z,14.00
2018-09-19T03:43:53.656Z,13.43
2018-09-19T03:46:21.981Z,15.80
2018-09-19T03:48:50.306Z,13.00
2018-09-19T03:51:18.619Z,13.30
2018-09-19T03:53:46.978Z,11.37
2018-09-19T03:56:15.297Z,12.13
2018-09-19T03:58:43.596Z,12.17
2018-09-19T04:01:11.906Z,22.30
2018-09-19T04:03:40.203Z,12.70
2018-09-19T04:06:08.534Z,14.57
2018-09-19T04:08:36.827Z,12.27
2018-09-19T04:11:05.140Z,12.37
2018-09-19T04:13:33.440Z,14.03
2018-09-19T04:16:01.756Z,15.20
2018-09-19T04:18:30.054Z,12.70
2018-09-19T04:20:58.373Z,11.93
2018-09-19T04:23:26.678Z,14.30
2018-09-19T04:25:55.005Z,11.43
2018-09-19T04:28:23.299Z,11.90
2018-09-19T04:30:51.621Z,10.10
2018-09-19T04:33:19.922Z,13.27
2018-09-19T04:35:48.231Z,14.70
2018-09-19T04:38:16.556Z,16.90
2018-09-19T04:40:44.875Z,14.47
2018-09-19T04:43:13.175Z,14.50
2018-09-19T04:45:41.511Z,21.40
2018-09-19T04:48:09.832Z,18.87
2018-09-19T04:50:38.134Z,14.53
2018-09-19T04:53:06.544Z,12.33
2018-09-19T04:55:34.899Z,13.67
2018-09-19T04:58:03.231Z,14.80
2018-09-19T05:00:31.562Z,19.60
2018-09-19T05:02:59.876Z,15.47
2018-09-19T05:05:28.171Z,13.40
2018-09-19T05:07:56.503Z,19.40
2018-09-19T05:10:24.796Z,21.03
2018-09-19T05:12:53.115Z,39.57
2018-09-19T05:15:21.408Z,30.40
2018-09-19T05:17:49.731Z,26.30
2018-09-19T05:20:18.023Z,25.73
2018-09-19T05:22:46.336Z,30.53
2018-09-19T05:25:14.683Z,19.90
2018-09-19T05:27:43.104Z,18.00
2018-09-19T05:30:11.416Z,22.73
2018-09-19T05:32:39.742Z,22.50
2018-09-19T05:35:08.045Z,18.97
2018-09-19T05:37:36.378Z,18.93
2018-09-19T05:40:04.695Z,16.00
2018-09-19T05:42:33.007Z,22.10
2018-09-19T05:45:01.589Z,19.13
2018-09-19T05:47:30.224Z,20.97
2018-09-19T05:49:58.523Z,15.90
2018-09-19T05:52:27.253Z,17.27
2018-09-19T05:54:57.308Z,17.13
2018-09-19T05:57:26.019Z,18.50
2018-09-19T05:59:54.311Z,14.60
2018-09-19T06:02:22.624Z,17.63
2018-09-19T06:04:50.935Z,18.40
2018-09-19T06:07:19.262Z,15.70
2018-09-19T06:09:47.863Z,17.73
2018-09-19T06:12:16.219Z,19.00
2018-09-19T06:14:44.524Z,16.93
2018-09-19T06:17:12.886Z,23.00
2018-09-19T06:19:41.183Z,20.90
2018-09-19T06:22:09.614Z,21.47
2018-09-19T06:24:38.221Z,18.10
2018-09-19T06:27:06.607Z,19.67
2018-09-19T06:29:35.014Z,17.40
2018-09-19T06:32:03.258Z,15.30
2018-09-19T06:34:31.568Z,17.57
2018-09-19T06:37:00.019Z,15.63
2018-09-19T06:39:28.236Z,14.67
2018-09-19T06:41:56.593Z,13.43
2018-09-19T06:44:24.890Z,22.80
2018-09-19T06:46:53.297Z,34.23
2018-09-19T06:49:21.539Z,11.93
2018-09-19T06:51:49.865Z,12.60
2018-09-19T06:54:18.194Z,17.63
2018-09-19T06:56:46.507Z,20.63
2018-09-19T06:59:14.790Z,11.33
2018-09-19T07:01:43.088Z,25.53
2018-09-19T07:04:11.788Z,24.00
2018-09-19T07:06:40.086Z,20.20
2018-09-19T07:09:09.493Z,17.70
2018-09-19T07:11:37.792Z,28.40
2018-09-19T07:14:06.313Z,23.50
2018-09-19T07:16:34.632Z,28.07
2018-09-19T07:19:03.010Z,23.23
2018-09-19T07:21:31.331Z,16.73
2018-09-19T07:23:59.648Z,23.00
2018-09-19T07:26:27.945Z,23.20
2018-09-19T07:28:57.336Z,14.93
2018-09-19T07:31:25.649Z,15.03
2018-09-19T07:33:53.974Z,25.43
2018-09-19T07:36:22.308Z,17.73
2018-09-19T07:38:50.720Z,22.50
2018-09-19T07:41:19.016Z,23.00
2018-09-19T07:43:47.336Z,20.13
2018-09-19T07:46:15.639Z,15.70
2018-09-19T07:48:43.952Z,26.27
2018-09-19T07:51:12.249Z,20.17
2018-09-19T07:53:41.344Z,32.70
2018-09-19T07:56:09.633Z,24.83
2018-09-19T07:58:37.954Z,23.87
2018-09-19T08:01:06.319Z,22.87
2018-09-19T08:03:34.655Z,27.13
2018-09-19T08:06:02.951Z,14.30
2018-09-19T08:08:31.269Z,22.43
2018-09-19T08:10:59.571Z,15.90
2018-09-19T08:13:27.894Z,16.17
2018-09-19T08:15:56.195Z,16.80
2018-09-19T08:18:24.506Z,17.80
2018-09-19T08:20:52.798Z,15.50
2018-09-19T08:23:21.114Z,13.10
2018-09-19T08:25:49.409Z,17.30
2018-09-19T08:28:17.742Z,13.83
2018-09-19T08:30:46.036Z,19.30
2018-09-19T08:33:14.450Z,21.03
2018-09-19T08:35:43.844Z,29.07
2018-09-19T08:38:12.180Z,15.50
2018-09-19T08:40:40.465Z,17.63
2018-09-19T08:43:08.782Z,16.60
2018-09-19T08:45:37.084Z,14.10
2018-09-19T08:48:05.409Z,16.13
2018-09-19T08:50:33.768Z,12.07
2018-09-19T08:53:02.655Z,18.97
2018-09-19T08:55:31.126Z,12.70
2018-09-19T08:57:59.744Z,12.00
2018-09-19T09:00:28.037Z,12.87
2018-09-19T09:02:56.347Z,12.47
2018-09-19T09:05:24.714Z,15.60
2018-09-19T09:07:52.965Z,14.73
2018-09-19T09:10:21.275Z,12.40
2018-09-19T09:12:49.681Z,10.43
2018-09-19T09:15:17.996Z,20.37
2018-09-19T09:17:46.315Z,10.87
2018-09-19T09:20:14.628Z,11.33
2018-09-19T09:22:42.920Z,10.10
2018-09-19T09:25:11.311Z,12.93
2018-09-19T09:27:39.656Z,18.33
2018-09-19T09:30:07.957Z,12.63
2018-09-19T09:32:36.250Z,20.50
2018-09-19T09:35:04.620Z,15.80
2018-09-19T09:37:32.941Z,24.97
2018-09-19T09:40:01.258Z,17.73
2018-09-19T09:42:29.557Z,13.70
2018-09-19T09:44:57.866Z,16.83
2018-09-19T09:47:26.272Z,14.53
2018-09-19T09:49:54.591Z,16.73
2018-09-19T09:52:22.972Z,9.80
2018-09-19T09:54:52.136Z,10.10
2018-09-19T09:57:20.456Z,11.37
2018-09-19T09:59:48.763Z,12.40
2018-09-19T10:02:17.056Z,15.43
2018-09-19T10:04:45.375Z,7.93
2018-09-19T10:07:13.673Z,5.77
2018-09-19T10:09:41.993Z,6.00
2018-09-19T10:12:10.284Z,9.10
2018-09-19T10:14:38.591Z,6.37
2018-09-19T10:17:06.924Z,11.13
2018-09-19T10:19:35.240Z,5.13
2018-09-19T10:22:03.606Z,6.37
2018-09-19T10:24:31.916Z,5.97
2018-09-19T10:27:00.202Z,5.47
2018-09-19T10:29:28.555Z,5.90
2018-09-19T10:31:56.867Z,6.90
2018-09-19T10:34:25.171Z,6.00
2018-09-19T10:36:53.485Z,5.97
2018-09-19T10:39:21.814Z,8.90
2018-09-19T10:41:50.135Z,4.00
2018-09-19T10:44:19.009Z,5.80
2018-09-19T10:46:47.326Z,5.10
2018-09-19T10:49:15.652Z,4.60
2018-09-19T10:51:44.054Z,6.80
2018-09-19T10:54:12.461Z,7.47
2018-09-19T10:56:40.881Z,7.03
2018-09-19T10:59:09.164Z,5.80
2018-09-19T11:01:37.500Z,5.97
2018-09-19T11:04:05.896Z,8.73
2018-09-19T11:06:34.204Z,6.37
2018-09-19T11:09:02.512Z,4.73
2018-09-19T11:11:30.824Z,2.73
2018-09-19T11:13:59.117Z,5.03
2018-09-19T11:16:27.424Z,5.67
2018-09-19T11:18:55.716Z,6.37
2018-09-19T11:21:24.024Z,4.53
2018-09-19T11:23:52.316Z,5.47
2018-09-19T11:26:20.644Z,5.70
2018-09-19T11:28:48.940Z,4.07
2018-09-19T11:31:17.251Z,6.90
2018-09-19T11:33:45.569Z,4.63
2018-09-19T11:36:13.901Z,3.83
2018-09-19T11:38:42.221Z,2.33
2018-09-19T11:41:10.547Z,5.40
2018-09-19T11:43:39.096Z,7.13
2018-09-19T11:46:07.412Z,4.20
2018-09-19T11:48:35.725Z,6.10
2018-09-19T11:51:04.044Z,4.00
2018-09-19T11:53:32.360Z,7.50
2018-09-19T11:56:00.868Z,2.80
2018-09-19T11:58:30.165Z,4.30
2018-09-19T12:00:58.880Z,2.10
2018-09-19T12:03:27.664Z,3.50
2018-09-19T12:05:55.973Z,5.57
2018-09-19T12:08:24.259Z,3.43
2018-09-19T12:10:52.568Z,4.30
2018-09-19T12:13:20.861Z,2.87
2018-09-19T12:15:49.165Z,6.77
2018-09-19T12:18:17.447Z,3.70
2018-09-19T12:20:45.852Z,3.73
2018-09-19T12:23:14.140Z,2.90
2018-09-19T12:25:42.456Z,3.90
2018-09-19T12:28:10.756Z,4.17
2018-09-19T12:30:39.880Z,3.97
2018-09-19T12:33:08.185Z,5.20
2018-09-19T12:35:36.543Z,3.17
2018-09-19T12:38:04.916Z,6.40
2018-09-19T12:40:33.221Z,7.37
2018-09-19T12:43:01.512Z,6.57
2018-09-19T12:45:29.823Z,8.70
2018-09-19T12:47:58.111Z,7.20
2018-09-19T12:50:26.417Z,6.07
2018-09-19T12:52:54.704Z,4.30
2018-09-19T12:55:22.987Z,6.67
2018-09-19T12:57:51.283Z,6.80
2018-09-19T13:00:19.566Z,4.83
2018-09-19T13:02:47.891Z,6.30
2018-09-19T13:05:16.176Z,8.77
2018-09-19T13:07:44.488Z,6.50
2018-09-19T13:10:12.782Z,6.70
2018-09-19T13:12:41.096Z,8.63
2018-09-19T13:15:09.402Z,9.30
2018-09-19T13:17:37.724Z,9.77
2018-09-19T13:20:06.151Z,4.93
2018-09-19T13:22:34.456Z,5.50
2018-09-19T13:25:02.847Z,5.37
2018-09-19T13:27:31.255Z,5.73
2018-09-19T13:29:59.467Z,7.23
2018-09-19T13:32:27.815Z,4.97
2018-09-19T13:34:56.104Z,9.53
2018-09-19T13:37:24.432Z,14.37
2018-09-19T13:39:52.724Z,8.70
2018-09-19T13:42:21.040Z,5.30
2018-09-19T13:44:49.828Z,7.63
2018-09-19T13:47:18.132Z,4.73
2018-09-19T13:49:49.812Z,4.50
2018-09-19T13:52:18.120Z,4.67
2018-09-19T13:54:46.412Z,7.97
2018-09-19T13:57:14.732Z,5.13
2018-09-19T13:59:43.011Z,4.70
2018-09-19T14:02:11.320Z,7.27
2018-09-19T14:04:39.611Z,4.67
2018-09-19T14:07:07.965Z,6.83
2018-09-19T14:09:36.247Z,7.33
2018-09-19T14:12:04.583Z,14.40
2018-09-19T14:14:32.868Z,9.37
2018-09-19T14:17:01.184Z,15.20
2018-09-19T14:19:29.468Z,5.83
2018-09-19T14:21:57.785Z,7.97
2018-09-19T14:24:26.087Z,11.00
2018-09-19T14:26:54.392Z,9.57
2018-09-19T14:29:22.692Z,15.03
2018-09-19T14:31:51.099Z,8.83
2018-09-19T14:34:19.380Z,8.83
2018-09-19T14:36:47.687Z,7.43
2018-09-19T14:39:16.795Z,17.43
2018-09-19T14:41:45.291Z,7.30
2018-09-19T14:44:15.596Z,7.80
2018-09-19T14:46:44.317Z,8.20
2018-09-19T14:49:12.604Z,9.23
2018-09-19T14:51:41.031Z,11.13
2018-09-19T14:54:09.414Z,8.37
2018-09-19T14:56:37.783Z,11.13
2018-09-19T14:59:06.325Z,6.97
2018-09-19T15:01:34.640Z,6.73
2018-09-19T15:04:02.928Z,8.30
2018-09-19T15:06:31.252Z,9.03
2018-09-19T15:08:59.548Z,5.90
2018-09-19T15:11:27.832Z,5.30
2018-09-19T15:13:56.139Z,6.97
2018-09-19T15:16:24.564Z,5.83
2018-09-19T15:18:53.089Z,13.43
2018-09-19T15:21:21.420Z,6.20
2018-09-19T15:23:50.408Z,10.87
2018-09-19T15:26:19.141Z,15.43
2018-09-19T15:28:47.592Z,8.40
2018-09-19T15:31:15.887Z,7.30
2018-09-19T15:33:44.297Z,6.20
2018-09-19T15:36:12.864Z,9.70
2018-09-19T15:38:41.320Z,9.17
2018-09-19T15:41:09.608Z,6.40
2018-09-19T15:43:37.916Z,5.20
2018-09-19T15:46:06.200Z,5.93
2018-09-19T15:48:34.554Z,6.23
2018-09-19T15:51:02.815Z,4.13
2018-09-19T15:53:31.999Z,9.30
2018-09-19T15:56:01.397Z,9.70
2018-09-19T15:58:29.720Z,8.10
2018-09-19T16:00:58.013Z,7.63
2018-09-19T16:03:27.108Z,6.10
2018-09-19T16:05:55.463Z,9.17
2018-09-19T16:08:24.197Z,14.30
2018-09-19T16:10:52.590Z,11.70
2018-09-19T16:13:20.908Z,15.53
2018-09-19T16:15:49.253Z,11.50
2018-09-19T16:18:17.574Z,20.10
2018-09-19T16:20:45.868Z,12.30
2018-09-19T16:23:14.196Z,9.37
2018-09-19T16:25:42.484Z,13.57
2018-09-19T16:28:10.796Z,6.93
2018-09-19T16:30:39.086Z,10.80
2018-09-19T16:33:07.392Z,9.27
2018-09-19T16:35:35.680Z,14.93
2018-09-19T16:38:04.055Z,8.80
2018-09-19T16:40:32.312Z,8.33
2018-09-19T16:43:00.674Z,7.50
2018-09-19T16:45:28.976Z,7.80
2018-09-19T16:47:57.288Z,8.57
2018-09-19T16:50:25.644Z,13.53
2018-09-19T16:52:53.991Z,8.10
2018-09-19T16:55:22.285Z,7.80
2018-09-19T16:57:50.634Z,5.30
2018-09-19T17:00:18.916Z,7.20
2018-09-19T17:02:47.217Z,8.13
2018-09-19T17:05:15.508Z,6.03
2018-09-19T17:07:43.848Z,6.40
2018-09-19T17:10:12.166Z,6.70
2018-09-19T17:12:40.578Z,9.67
2018-09-19T17:15:08.937Z,5.93
2018-09-19T17:17:37.780Z,10.40
2018-09-19T17:20:06.455Z,6.13
2018-09-19T17:22:34.759Z,9.53
2018-09-19T17:25:03.049Z,6.03
2018-09-19T17:27:31.336Z,6.73
2018-09-19T17:29:59.645Z,8.63
2018-09-19T17:32:27.934Z,6.27
2018-09-19T17:34:56.240Z,5.20
2018-09-19T17:37:24.900Z,8.27
2018-09-19T17:39:53.190Z,8.20
2018-09-19T17:42:21.476Z,10.33
2018-09-19T17:44:49.784Z,17.00
2018-09-19T17:47:18.092Z,7.27
2018-09-19T17:49:46.466Z,11.40
2018-09-19T17:52:14.738Z,10.87
2018-09-19T17:54:43.044Z,7.03
2018-09-19T17:57:11.336Z,7.53
2018-09-19T17:59:39.643Z,9.23
2018-09-19T18:02:07.936Z,8.50
2018-09-19T18:04:36.241Z,7.47
2018-09-19T18:07:04.548Z,6.17
2018-09-19T18:09:32.884Z,6.63
2018-09-19T18:12:01.183Z,6.43
2018-09-19T18:14:29.498Z,14.77
2018-09-19T18:16:57.791Z,8.70
2018-09-19T18:19:26.105Z,6.77
2018-09-19T18:21:54.392Z,8.07
2018-09-19T18:24:22.696Z,7.37
2018-09-19T18:26:50.979Z,8.13
2018-09-19T18:29:19.293Z,5.40
2018-09-19T18:31:47.588Z,6.80
2018-09-19T18:34:16.077Z,9.00
2018-09-19T18:36:44.364Z,9.37
2018-09-19T18:39:12.688Z,7.97
2018-09-19T18:41:40.987Z,7.53
2018-09-19T18:44:09.300Z,5.53
2018-09-19T18:46:37.592Z,13.67
2018-09-19T18:49:06.889Z,8.60
2018-09-19T18:51:35.355Z,9.10
2018-09-19T18:54:03.659Z,9.40
2018-09-19T18:56:31.947Z,5.67
2018-09-19T18:59:00.280Z,10.93
2018-09-19T19:01:28.569Z,8.23
2018-09-19T19:03:56.880Z,10.27
2018-09-19T19:06:25.167Z,11.00
2018-09-19T19:08:53.547Z,6.03
2018-09-19T19:11:21.848Z,11.77
2018-09-19T19:13:50.155Z,12.43
2018-09-19T19:16:18.673Z,11.07
2018-09-19T19:18:47.057Z,11.43
2018-09-19T19:21:15.352Z,8.07
2018-09-19T19:23:43.684Z,10.43
2018-09-19T19:26:11.968Z,9.43
2018-09-19T19:28:40.272Z,9.37
2018-09-19T19:31:08.562Z,13.80
2018-09-19T19:33:36.872Z,10.20
2018-09-19T19:36:05.160Z,8.30
2018-09-19T19:38:33.468Z,10.40
2018-09-19T19:41:01.775Z,9.33
2018-09-19T19:43:30.063Z,9.17
2018-09-19T19:45:58.376Z,10.50
2018-09-19T19:48:27.203Z,10.53
2018-09-19T19:50:55.599Z,11.47
2018-09-19T19:53:23.913Z,10.80
2018-09-19T19:55:52.216Z,8.20
2018-09-19T19:58:20.547Z,9.10
2018-09-19T20:00:48.892Z,9.70
2018-09-19T20:03:17.252Z,7.17
2018-09-19T20:05:45.588Z,7.30
2018-09-19T20:08:13.875Z,9.10
2018-09-19T20:10:43.452Z,13.53
2018-09-19T20:13:11.715Z,15.47
2018-09-19T20:15:40.033Z,10.30
2018-09-19T20:18:08.324Z,8.53
2018-09-19T20:20:36.645Z,12.33
2018-09-19T20:23:04.979Z,14.80
2018-09-19T20:25:33.296Z,8.17
2018-09-19T20:28:01.592Z,9.10
2018-09-19T20:30:29.904Z,9.50
2018-09-19T20:32:58.192Z,9.10
2018-09-19T20:35:26.504Z,7.80
2018-09-19T20:37:54.820Z,11.00
2018-09-19T20:40:24.140Z,8.00
2018-09-19T20:42:52.449Z,9.30
2018-09-19T20:45:20.768Z,9.87
2018-09-19T20:47:49.056Z,9.40
2018-09-19T20:50:17.408Z,8.20
2018-09-19T20:52:45.776Z,8.43
2018-09-19T20:55:14.080Z,9.37
2018-09-19T20:57:42.364Z,10.10
2018-09-19T21:00:10.668Z,9.20
2018-09-19T21:02:38.956Z,9.60
2018-09-19T21:05:07.284Z,9.73
2018-09-19T21:07:35.612Z,9.00
2018-09-19T21:10:04.017Z,10.23
2018-09-19T21:12:32.396Z,8.27
2018-09-19T21:15:00.704Z,8.60
2018-09-19T21:17:29.016Z,8.90
2018-09-19T21:19:57.311Z,9.73
2018-09-19T21:22:25.779Z,8.87
2018-09-19T21:24:53.941Z,15.90
2018-09-19T21:27:22.252Z,8.73
2018-09-19T21:29:50.540Z,9.57
2018-09-19T21:32:18.885Z,9.70
2018-09-19T21:34:47.162Z,7.40
2018-09-19T21:37:15.497Z,13.40
2018-09-19T21:39:43.793Z,7.50
2018-09-19T21:42:12.108Z,8.00
2018-09-19T21:44:40.399Z,7.97
2018-09-19T21:47:08.724Z,7.70
2018-09-19T21:49:37.057Z,10.33
2018-09-19T21:52:05.392Z,8.53
2018-09-19T21:54:33.680Z,10.43
2018-09-19T21:57:01.984Z,8.07
2018-09-19T21:59:30.324Z,8.67
2018-09-19T22:02:00.616Z,6.90
2018-09-19T22:04:29.092Z,8.00
2018-09-19T22:06:57.509Z,7.30
2018-09-19T22:09:25.816Z,7.07
2018-09-19T22:11:54.130Z,7.40
2018-09-19T22:14:22.432Z,12.03
2018-09-19T22:16:50.756Z,9.33
2018-09-19T22:19:19.053Z,8.70
2018-09-19T22:21:47.360Z,7.33
2018-09-19T22:24:15.652Z,5.90
2018-09-19T22:26:43.960Z,5.90
2018-09-19T22:29:12.247Z,6.93
2018-09-19T22:31:40.552Z,7.97
2018-09-19T22:34:08.844Z,8.70
2018-09-19T22:36:37.160Z,8.00
2018-09-19T22:39:07.680Z,7.70
2018-09-19T22:41:36.000Z,7.50
2018-09-19T22:44:04.292Z,7.23
2018-09-19T22:46:32.598Z,5.67
2018-09-19T22:49:00.885Z,7.73
2018-09-19T22:51:29.193Z,5.03
2018-09-19T22:53:57.497Z,11.77
2018-09-19T22:56:25.807Z,7.60
2018-09-19T22:58:54.102Z,7.93
2018-09-19T23:01:22.416Z,5.40
2018-09-19T23:03:50.716Z,9.27
2018-09-19T23:06:19.029Z,5.20
2018-09-19T23:08:47.417Z,9.90
2018-09-19T23:11:15.732Z,8.60
2018-09-19T23:13:44.043Z,5.43
2018-09-19T23:16:12.344Z,18.13
2018-09-19T23:18:40.647Z,9.80
2018-09-19T23:21:08.944Z,5.30
2018-09-19T23:23:37.256Z,13.63
2018-09-19T23:26:05.576Z,8.47
2018-09-19T23:28:33.890Z,6.37
2018-09-19T23:31:02.175Z,5.27
2018-09-19T23:33:30.494Z,9.83
2018-09-19T23:35:58.784Z,5.47
2018-09-19T23:38:27.120Z,5.30
2018-09-19T23:40:55.412Z,9.83
2018-09-19T23:43:23.736Z,7.77
2018-09-19T23:45:52.028Z,8.20
2018-09-19T23:48:20.371Z,10.87
2018-09-19T23:50:48.664Z,9.77
2018-09-19T23:55:51.544Z,6.60
2018-09-19T23:58:19.847Z,5.27
